Time;durP1;ratioP1;P1;durP2;ratioP2;P2;SDS_P1;SDS_P2;PMS_P1;PMS_P2;Temp;Humidity;BMP_temperature;BMP_pressure;BME280_temperature;BME280_humidity;BME280_pressure;Samples;Min_cycle;Max_cycle;Signal;HPM_P1;HPM_P2
2022/04/07 00:00:13;;;;;;;0.40;0.30;;;;;;;10.92;72.18;98938.97;5098057;28;20455;-78
2022/04/07 00:02:40;;;;;;;0.40;0.30;;;;;;;10.84;72.97;98932.53;5098354;28;20456;-77
2022/04/07 00:05:08;;;;;;;0.40;0.30;;;;;;;10.85;73.30;98921.38;5099241;28;20456;-77
2022/04/07 00:07:34;;;;;;;0.40;0.30;;;;;;;10.80;73.55;98918.09;5099312;28;20451;-77
2022/04/07 00:10:01;;;;;;;0.40;0.30;;;;;;;10.82;73.40;98916.66;5098082;28;20428;-77
2022/04/07 00:12:27;;;;;;;0.47;0.40;;;;;;;10.84;73.12;98905.47;5097186;28;20441;-77
2022/04/07 00:14:54;;;;;;;0.40;0.30;;;;;;;10.87;72.78;98904.78;5097146;28;20476;-77
2022/04/07 00:17:20;;;;;;;0.40;0.30;;;;;;;10.87;72.95;98904.78;5098166;28;20452;-77
2022/04/07 00:19:48;;;;;;;0.40;0.30;;;;;;;10.89;72.66;98890.88;5096951;28;20460;-77
2022/04/07 00:22:14;;;;;;;0.40;0.30;;;;;;;10.89;72.97;98893.59;5096627;28;20471;-77
2022/04/07 00:24:42;;;;;;;0.40;0.30;;;;;;;10.83;74.41;98885.72;5098003;28;20478;-78
2022/04/07 00:27:08;;;;;;;0.40;0.30;;;;;;;10.81;73.41;98877.16;5097646;28;20436;-77
2022/04/07 00:29:35;;;;;;;0.40;0.30;;;;;;;10.76;73.21;98882.81;5097178;28;20437;-77
2022/04/07 00:32:05;;;;;;;0.40;0.30;;;;;;;10.78;73.58;98875.13;5097199;28;20428;-77
2022/04/07 00:34:32;;;;;;;0.40;0.30;;;;;;;10.85;73.56;98872.63;5096282;28;20571;-77
2022/04/07 00:37:01;;;;;;;0.40;0.30;;;;;;;10.84;73.11;98871.03;5095817;28;20523;-77
2022/04/07 00:39:27;;;;;;;0.40;0.30;;;;;;;10.77;73.57;98867.34;5095702;28;20436;-78
2022/04/07 00:41:54;;;;;;;0.40;0.30;;;;;;;10.71;74.40;98861.38;5095399;28;20441;-78
2022/04/07 00:44:22;;;;;;;0.40;0.30;;;;;;;10.65;75.78;98862.75;5098266;28;20999;-78
2022/04/07 00:46:48;;;;;;;0.40;0.30;;;;;;;10.59;75.31;98859.53;5099906;28;20635;-78
2022/04/07 00:49:15;;;;;;;0.40;0.30;;;;;;;10.54;75.99;98856.28;5098935;28;20424;-78
2022/04/07 00:51:44;;;;;;;0.40;0.30;;;;;;;10.52;75.20;98847.69;5099057;28;20447;-77
2022/04/07 00:54:13;;;;;;;0.40;0.30;;;;;;;10.46;76.13;98857.97;5098945;28;20492;-78
2022/04/07 00:56:41;;;;;;;0.40;0.30;;;;;;;10.50;75.02;98842.63;5098577;28;20486;-77
2022/04/07 00:59:09;;;;;;;0.40;0.30;;;;;;;10.48;75.56;98842.16;5099406;28;20947;-77
2022/04/07 01:01:35;;;;;;;0.40;0.30;;;;;;;10.47;75.67;98837.09;5098213;28;20455;-77
2022/04/07 01:04:02;;;;;;;0.40;0.30;;;;;;;10.52;75.42;98834.94;5097724;28;20463;-77
2022/04/07 01:06:29;;;;;;;0.40;0.30;;;;;;;10.52;75.21;98832.22;5098591;28;20448;-78
2022/04/07 01:08:56;;;;;;;0.40;0.30;;;;;;;10.59;75.40;98824.31;5097052;28;20441;-77
2022/04/07 01:11:26;;;;;;;0.40;0.30;;;;;;;10.64;75.03;98828.69;5097048;28;20425;-77
2022/04/07 01:13:53;;;;;;;0.40;0.30;;;;;;;10.54;76.21;98816.44;5095974;28;20515;-77
2022/04/07 01:16:21;;;;;;;0.40;0.30;;;;;;;10.57;75.17;98828.50;5097713;28;20447;-77
2022/04/07 01:18:48;;;;;;;0.40;0.30;;;;;;;10.58;75.17;98821.94;5097045;28;20448;-78
2022/04/07 01:21:17;;;;;;;0.40;0.30;;;;;;;10.54;75.86;98818.38;5097779;28;20488;-77
2022/04/07 01:23:51;;;;;;;0.40;0.30;;;;;;;10.56;75.39;98814.16;5096307;28;20465;-77
2022/04/07 01:26:19;;;;;;;0.40;0.30;;;;;;;10.56;75.26;98810.69;5097197;28;20499;-78
2022/04/07 01:28:49;;;;;;;0.40;0.30;;;;;;;10.50;76.36;98812.06;5097354;28;20437;-77
2022/04/07 01:31:16;;;;;;;0.40;0.30;;;;;;;10.44;76.92;98803.38;5096643;28;20483;-77
2022/04/07 01:33:43;;;;;;;0.40;0.30;;;;;;;10.44;76.33;98808.78;5096131;28;21031;-78
2022/04/07 01:36:10;;;;;;;0.40;0.30;;;;;;;10.39;77.43;98800.13;5096100;28;20441;-78
2022/04/07 01:38:37;;;;;;;0.50;0.40;;;;;;;10.41;76.71;98793.25;5097211;28;20437;-77
2022/04/07 01:41:04;;;;;;;0.83;0.83;;;;;;;10.45;76.66;98785.25;5095075;28;20445;-76
2022/04/07 01:43:33;;;;;;;0.40;0.30;;;;;;;10.42;77.08;98789.41;5094909;28;20468;-77
2022/04/07 01:46:00;;;;;;;0.40;0.30;;;;;;;10.46;76.67;98786.81;5095148;28;20449;-76
2022/04/07 01:48:27;;;;;;;0.40;0.30;;;;;;;10.45;77.13;98780.63;5094427;28;20448;-77
2022/04/07 01:50:54;;;;;;;0.40;0.30;;;;;;;10.45;77.05;98783.31;5094321;28;20440;-77
2022/04/07 01:53:21;;;;;;;0.40;0.30;;;;;;;10.46;77.26;98784.09;5093937;28;20456;-77
2022/04/07 01:55:49;;;;;;;0.40;0.30;;;;;;;10.46;77.10;98776.00;5094688;28;20447;-78
2022/04/07 01:58:18;;;;;;;0.40;0.30;;;;;;;10.43;77.88;98782.88;5096703;28;20441;-77
2022/04/07 02:00:46;;;;;;;0.40;0.30;;;;;;;10.46;77.24;98776.78;5096471;28;20451;-77
2022/04/07 02:03:12;;;;;;;0.40;0.30;;;;;;;10.47;77.57;98775.63;5096341;28;20468;-78
2022/04/07 02:05:39;;;;;;;0.40;0.40;;;;;;;10.48;77.01;98774.50;5096066;28;20486;-77
2022/04/07 02:08:06;;;;;;;0.40;0.30;;;;;;;10.43;77.83;98774.75;5096538;28;20455;-77
2022/04/07 02:10:32;;;;;;;0.40;0.30;;;;;;;10.48;77.87;98766.38;5097370;28;20448;-78
2022/04/07 02:12:59;;;;;;;0.40;0.30;;;;;;;10.46;77.73;98768.66;5096348;28;20488;-78
2022/04/07 02:15:27;;;;;;;0.40;0.30;;;;;;;10.46;77.63;98757.81;5095992;28;20486;-78
2022/04/07 02:17:55;;;;;;;0.40;0.30;;;;;;;10.47;77.59;98758.59;5096252;28;20926;-77
2022/04/07 02:20:21;;;;;;;0.40;0.30;;;;;;;10.46;77.83;98754.34;5095856;28;20428;-78
2022/04/07 02:22:48;;;;;;;0.40;0.30;;;;;;;10.40;78.22;98750.28;5095954;28;20575;-78
2022/04/07 02:25:14;;;;;;;0.40;0.30;;;;;;;10.37;78.60;98751.78;5096462;28;20421;-77
2022/04/07 02:27:42;;;;;;;0.40;0.30;;;;;;;10.33;79.36;98746.25;5095162;28;20444;-78
2022/04/07 02:30:11;;;;;;;0.40;0.30;;;;;;;10.24;79.57;98742.91;5095661;28;20543;-77
2022/04/07 02:32:38;;;;;;;0.40;0.30;;;;;;;10.25;79.29;98746.41;5095815;28;20448;-78
2022/04/07 02:35:07;;;;;;;0.40;0.30;;;;;;;10.27;79.37;98731.41;5095549;28;20480;-77
2022/04/07 02:37:34;;;;;;;0.40;0.30;;;;;;;10.26;79.47;98737.94;5094769;28;20455;-77
2022/04/07 02:40:01;;;;;;;0.40;0.30;;;;;;;10.21;80.24;98735.44;5094697;28;20436;-77
2022/04/07 02:42:27;;;;;;;0.40;0.30;;;;;;;10.19;80.33;98726.91;5094910;28;20447;-77
2022/04/07 02:44:54;;;;;;;0.40;0.30;;;;;;;10.17;80.37;98721.03;5096274;28;20447;-78
2022/04/07 02:47:20;;;;;;;0.40;0.30;;;;;;;10.14;81.16;98732.56;5096755;28;20436;-78
2022/04/07 02:49:47;;;;;;;0.40;0.30;;;;;;;10.08;80.95;98721.16;5096201;28;20444;-78
2022/04/07 02:52:14;;;;;;;0.40;0.30;;;;;;;10.13;80.98;98725.56;5093935;28;20848;-77
2022/04/07 02:54:41;;;;;;;0.40;0.30;;;;;;;10.11;81.42;98734.03;5094087;28;20483;-77
2022/04/07 02:57:07;;;;;;;0.40;0.30;;;;;;;10.15;80.76;98726.00;5093681;28;20429;-77
2022/04/07 02:59:34;;;;;;;0.40;0.30;;;;;;;10.16;80.87;98718.69;5094033;28;20439;-77
2022/04/07 03:02:00;;;;;;;0.40;0.30;;;;;;;10.14;81.51;98720.91;5096178;28;20502;-78
2022/04/07 03:04:27;;;;;;;0.40;0.30;;;;;;;10.01;81.60;98701.28;5095899;28;20563;-78
2022/04/07 03:06:54;;;;;;;0.40;0.30;;;;;;;10.00;81.85;98699.66;5096052;28;20456;-77
2022/04/07 03:09:22;;;;;;;0.40;0.30;;;;;;;9.95;82.47;98697.22;5098284;28;20447;-77
2022/04/07 03:11:49;;;;;;;0.40;0.30;;;;;;;9.93;82.41;98685.97;5099150;28;20439;-78
2022/04/07 03:14:16;;;;;;;0.40;0.30;;;;;;;9.94;82.57;98691.03;5099217;28;20498;-77
2022/04/07 03:16:43;;;;;;;0.40;0.30;;;;;;;10.04;82.10;98689.75;5099249;28;20459;-78
2022/04/07 03:19:10;;;;;;;0.40;0.30;;;;;;;10.03;82.26;98688.19;5099660;28;20440;-77
2022/04/07 03:21:36;;;;;;;0.40;0.20;;;;;;;10.06;82.02;98672.06;5097897;28;20945;-78
2022/04/07 03:24:03;;;;;;;0.40;0.30;;;;;;;10.09;82.00;98678.69;5097953;28;20877;-77
2022/04/07 03:26:31;;;;;;;0.40;0.30;;;;;;;10.10;81.85;98674.88;5098687;28;20472;-77
2022/04/07 03:28:57;;;;;;;0.40;0.30;;;;;;;10.06;82.41;98665.84;5098330;28;20455;-77
2022/04/07 03:31:24;;;;;;;0.40;0.23;;;;;;;10.05;82.29;98653.47;5098310;28;20455;-77
2022/04/07 03:33:50;;;;;;;0.40;0.30;;;;;;;10.05;82.63;98656.97;5098508;28;20453;-78
2022/04/07 03:36:17;;;;;;;0.40;0.30;;;;;;;9.98;82.92;98664.88;5099188;28;20440;-78
2022/04/07 03:38:44;;;;;;;1.60;1.50;;;;;;;10.02;82.55;98671.16;5098046;28;20448;-78
2022/04/07 03:41:10;;;;;;;0.40;0.30;;;;;;;10.10;82.55;98666.75;5097172;28;20445;-77
2022/04/07 03:43:38;;;;;;;0.40;0.30;;;;;;;10.10;82.47;98661.34;5096754;28;20476;-77
2022/04/07 03:46:05;;;;;;;0.40;0.30;;;;;;;10.18;82.14;98665.81;5097183;28;20535;-76
2022/04/07 03:48:31;;;;;;;0.40;0.33;;;;;;;10.17;81.96;98653.41;5096808;28;20436;-77
2022/04/07 03:50:58;;;;;;;0.40;0.30;;;;;;;10.21;81.77;98654.28;5096823;28;20440;-78
2022/04/07 03:53:24;;;;;;;0.40;0.30;;;;;;;10.19;82.09;98648.44;5097440;28;20460;-77
2022/04/07 03:55:51;;;;;;;0.40;0.30;;;;;;;10.25;81.48;98647.06;5099550;28;20487;-77
2022/04/07 03:58:17;;;;;;;0.40;0.30;;;;;;;10.29;81.87;98653.38;5098390;28;20477;-77
2022/04/07 04:00:45;;;;;;;0.93;0.87;;;;;;;10.27;82.06;98646.72;5098579;28;20440;-77
2022/04/07 04:03:12;;;;;;;0.40;0.30;;;;;;;10.30;81.74;98644.13;5097088;28;20460;-77
2022/04/07 04:05:38;;;;;;;0.40;0.27;;;;;;;10.35;81.46;98638.44;5098103;28;20440;-77
2022/04/07 04:08:05;;;;;;;0.40;0.30;;;;;;;10.40;81.29;98636.63;5098029;28;20452;-78
2022/04/07 04:10:32;;;;;;;1.80;1.70;;;;;;;10.41;81.78;98622.75;5097863;28;20795;-77
2022/04/07 04:12:58;;;;;;;0.40;0.30;;;;;;;10.38;81.36;98626.16;5097685;28;20482;-77
2022/04/07 04:15:25;;;;;;;0.40;0.30;;;;;;;10.46;81.01;98621.72;5097521;28;20495;-78
2022/04/07 04:17:52;;;;;;;0.40;0.40;;;;;;;10.53;80.85;98627.28;5098042;28;20454;-77
2022/04/07 04:20:19;;;;;;;0.40;0.30;;;;;;;10.55;80.73;98611.50;5096287;28;20460;-77
2022/04/07 04:22:45;;;;;;;0.40;0.30;;;;;;;10.57;81.48;98620.03;5096868;28;20437;-79
2022/04/07 04:25:12;;;;;;;0.40;0.30;;;;;;;10.59;80.58;98610.44;5097032;28;20429;-78
2022/04/07 04:27:40;;;;;;;0.40;0.30;;;;;;;10.58;81.45;98603.47;5096129;28;20444;-77
2022/04/07 04:30:08;;;;;;;0.40;0.30;;;;;;;10.56;81.14;98597.59;5096761;28;20459;-77
2022/04/07 04:32:35;;;;;;;0.40;0.30;;;;;;;10.58;81.14;98592.63;5098491;28;20800;-78
2022/04/07 04:35:03;;;;;;;0.40;0.30;;;;;;;10.65;80.68;98586.59;5098977;28;20475;-78
2022/04/07 04:37:29;;;;;;;0.40;0.30;;;;;;;10.62;81.05;98579.16;5100704;28;20805;-78
2022/04/07 04:39:56;;;;;;;0.40;0.30;;;;;;;10.64;81.48;98586.94;5097021;28;20520;-77
2022/04/07 04:42:22;;;;;;;0.40;0.30;;;;;;;10.67;80.75;98581.63;5095804;28;20454;-77
2022/04/07 04:44:49;;;;;;;0.40;0.30;;;;;;;10.62;81.32;98576.44;5094964;28;20464;-77
2022/04/07 04:47:17;;;;;;;0.40;0.20;;;;;;;10.65;80.70;98578.47;5095499;28;20440;-76
2022/04/07 04:49:44;;;;;;;0.40;0.30;;;;;;;10.64;81.14;98576.91;5095298;28;20811;-77
2022/04/07 04:52:12;;;;;;;0.40;0.30;;;;;;;10.66;81.36;98571.91;5094900;28;20444;-77
2022/04/07 04:54:39;;;;;;;0.40;0.30;;;;;;;10.70;80.42;98574.72;5095179;28;20480;-77
2022/04/07 04:57:06;;;;;;;0.40;0.30;;;;;;;10.71;80.02;98555.41;5095882;28;20448;-77
2022/04/07 04:59:32;;;;;;;0.40;0.30;;;;;;;10.73;80.81;98558.56;5095024;28;20487;-77
2022/04/07 05:01:59;;;;;;;0.70;0.70;;;;;;;10.71;80.39;98560.81;5095103;28;20527;-77
2022/04/07 05:04:26;;;;;;;0.40;0.30;;;;;;;10.68;80.03;98556.13;5096545;28;20464;-78
2022/04/07 05:06:52;;;;;;;0.40;0.30;;;;;;;10.70;80.35;98553.06;5095943;28;20429;-77
2022/04/07 05:09:20;;;;;;;0.40;0.30;;;;;;;10.64;80.45;98544.41;5096684;28;20448;-77
2022/04/07 05:11:46;;;;;;;0.40;0.30;;;;;;;10.63;81.03;98548.28;5095422;28;20440;-77
2022/04/07 05:14:13;;;;;;;0.40;0.30;;;;;;;10.67;80.81;98534.78;5095033;28;20456;-76
2022/04/07 05:16:39;;;;;;;0.40;0.20;;;;;;;10.74;80.02;98533.03;5095600;28;20424;-77
2022/04/07 05:19:06;;;;;;;0.40;0.30;;;;;;;10.74;80.74;98532.25;5095056;28;20451;-77
2022/04/07 05:21:33;;;;;;;0.40;0.30;;;;;;;10.71;80.43;98532.94;5095089;28;20448;-77
2022/04/07 05:23:59;;;;;;;0.40;0.30;;;;;;;10.71;80.92;98528.31;5095275;28;20472;-76
2022/04/07 05:26:27;;;;;;;0.40;0.30;;;;;;;10.77;80.00;98520.72;5094687;28;20448;-77
2022/04/07 05:28:53;;;;;;;0.40;0.30;;;;;;;10.78;79.35;98520.38;5094568;28;20433;-76
2022/04/07 05:31:20;;;;;;;0.40;0.30;;;;;;;10.80;79.47;98520.00;5094004;28;20428;-77
2022/04/07 05:33:46;;;;;;;0.40;0.30;;;;;;;10.84;79.81;98513.53;5094368;28;20471;-77
2022/04/07 05:36:13;;;;;;;0.40;0.30;;;;;;;10.86;79.31;98516.69;5094025;28;20476;-76
2022/04/07 05:38:39;;;;;;;1.73;1.63;;;;;;;10.97;79.17;98516.13;5094038;28;20425;-76
2022/04/07 05:41:06;;;;;;;0.40;0.30;;;;;;;11.00;79.27;98505.38;5094403;28;20452;-76
2022/04/07 05:43:34;;;;;;;0.40;0.20;;;;;;;10.97;79.46;98502.56;5094156;28;20807;-76
2022/04/07 05:46:01;;;;;;;0.40;0.30;;;;;;;11.08;78.70;98498.19;5094761;28;20447;-75
2022/04/07 05:48:28;;;;;;;0.40;0.30;;;;;;;11.10;78.17;98507.50;5095010;28;20441;-77
2022/04/07 05:50:54;;;;;;;1.30;1.20;;;;;;;11.20;77.96;98502.66;5094642;28;20448;-77
2022/04/07 05:53:23;;;;;;;0.40;0.30;;;;;;;11.19;77.99;98498.38;5094073;28;20468;-77
2022/04/07 05:55:49;;;;;;;0.40;0.30;;;;;;;11.19;78.19;98498.38;5094116;28;20537;-76
2022/04/07 05:58:16;;;;;;;0.40;0.30;;;;;;;11.21;78.70;98501.53;5093947;28;20448;-76
2022/04/07 06:00:45;;;;;;;0.40;0.30;;;;;;;11.28;77.79;98501.66;5094914;28;20440;-78
2022/04/07 06:03:11;;;;;;;0.40;0.30;;;;;;;11.39;77.07;98491.06;5094406;28;20460;-77
2022/04/07 06:05:38;;;;;;;0.40;0.30;;;;;;;11.45;76.30;98489.59;5094120;28;20805;-76
2022/04/07 06:08:05;;;;;;;0.40;0.30;;;;;;;11.47;77.01;98484.63;5093764;28;20489;-77
2022/04/07 06:10:32;;;;;;;0.40;0.20;;;;;;;11.56;75.84;98485.19;5094213;28;20960;-76
2022/04/07 06:12:58;;;;;;;0.40;0.30;;;;;;;11.66;75.21;98490.00;5093572;28;20958;-76
2022/04/07 06:15:25;;;;;;;0.40;0.30;;;;;;;11.68;75.72;98482.28;5093806;28;20488;-76
2022/04/07 06:17:54;;;;;;;3.10;2.87;;;;;;;11.71;75.11;98492.44;5094800;28;20452;-77
2022/04/07 06:20:21;;;;;;;0.40;0.30;;;;;;;11.77;76.33;98488.25;5094255;28;20433;-77
2022/04/07 06:22:48;;;;;;;0.40;0.30;;;;;;;11.81;75.03;98480.97;5093682;28;20483;-76
2022/04/07 06:25:15;;;;;;;0.40;0.30;;;;;;;11.77;75.82;98472.00;5093704;28;20425;-76
2022/04/07 06:27:43;;;;;;;0.40;0.27;;;;;;;11.90;74.58;98469.13;5093616;28;20456;-77
2022/04/07 06:30:12;;;;;;;0.40;0.30;;;;;;;11.96;74.61;98465.78;5093645;28;20471;-76
2022/04/07 06:32:39;;;;;;;0.40;0.30;;;;;;;12.00;74.54;98479.41;5093910;28;20448;-76
2022/04/07 06:35:09;;;;;;;0.40;0.20;;;;;;;11.98;73.67;98465.41;5094151;28;20487;-78
2022/04/07 06:37:45;;;;;;;0.40;0.30;;;;;;;12.01;74.39;98467.41;5094130;28;20451;-76
2022/04/07 06:40:13;;;;;;;0.40;0.30;;;;;;;11.92;75.92;98480.44;5094133;28;20425;-76
2022/04/07 06:42:39;;;;;;;0.40;0.30;;;;;;;11.88;76.64;98466.78;5093804;28;20959;-77
2022/04/07 06:45:07;;;;;;;0.40;0.20;;;;;;;11.86;77.09;98450.91;5098087;28;20448;-77
2022/04/07 06:47:38;;;;;;;0.40;0.27;;;;;;;11.81;78.04;98450.34;5097591;28;20452;-76
2022/04/07 06:50:07;;;;;;;0.40;0.30;;;;;;;11.82;77.37;98449.19;5097709;28;20438;-76
2022/04/07 06:52:34;;;;;;;0.40;0.30;;;;;;;11.86;76.98;98453.59;5097342;28;20432;-77
2022/04/07 06:55:00;;;;;;;0.40;0.30;;;;;;;11.88;76.94;98447.03;5097346;28;20444;-76
2022/04/07 07:00:48;;;;;;;0.40;0.30;;;;;;;11.86;75.91;98440.03;5097309;28;20384;-77
2022/04/07 07:03:15;;;;;;;0.40;0.30;;;;;;;11.91;76.27;98435.44;5096856;28;20456;-76
2022/04/07 07:05:43;;;;;;;0.40;0.30;;;;;;;11.94;75.62;98434.72;5097220;28;20454;-77
2022/04/07 07:08:11;;;;;;;0.40;0.30;;;;;;;11.95;75.51;98428.91;5097225;28;20439;-76
2022/04/07 07:10:38;;;;;;;0.40;0.30;;;;;;;12.12;75.20;98425.69;5097277;28;20428;-77
2022/04/07 07:13:05;;;;;;;0.40;0.30;;;;;;;12.27;73.97;98424.00;5097441;28;20480;-78
2022/04/07 07:15:31;;;;;;;0.40;0.30;;;;;;;12.33;73.25;98414.38;5097491;28;20488;-77
2022/04/07 07:17:58;;;;;;;0.40;0.30;;;;;;;12.37;73.39;98404.38;5097089;28;20441;-76
2022/04/07 07:20:24;;;;;;;0.40;0.20;;;;;;;12.40;72.94;98402.09;5096804;28;20806;-76
2022/04/07 07:22:53;;;;;;;0.40;0.30;;;;;;;12.35;72.88;98400.44;5096865;28;20484;-76
2022/04/07 07:25:19;;;;;;;0.40;0.20;;;;;;;12.34;72.83;98386.09;5097403;28;20553;-77
2022/04/07 07:27:47;;;;;;;0.40;0.30;;;;;;;12.38;72.83;98384.22;5097002;28;20448;-76
2022/04/07 07:30:17;;;;;;;0.50;0.50;;;;;;;12.43;71.40;98387.75;5098319;28;20791;-77
2022/04/07 07:32:45;;;;;;;0.40;0.30;;;;;;;12.45;72.20;98383.53;5097904;28;20546;-76
2022/04/07 07:35:12;;;;;;;0.40;0.30;;;;;;;12.51;71.38;98376.63;5096461;28;20432;-76
2022/04/07 07:37:48;;;;;;;0.40;0.20;;;;;;;12.71;70.62;98368.34;5096855;28;20444;-77
2022/04/07 07:40:17;;;;;;;0.40;0.30;;;;;;;12.88;70.04;98373.19;5096845;28;20420;-77
2022/04/07 07:42:43;;;;;;;0.40;0.30;;;;;;;13.03;69.62;98357.84;5096377;28;20425;-76
2022/04/07 07:45:10;;;;;;;0.40;0.30;;;;;;;13.22;68.62;98360.38;5096315;28;20433;-77
2022/04/07 07:47:37;;;;;;;0.40;0.30;;;;;;;13.29;67.05;98357.75;5096284;28;20965;-76
2022/04/07 07:50:06;;;;;;;0.40;0.20;;;;;;;13.33;66.67;98358.56;5096279;28;20440;-76
2022/04/07 07:52:33;;;;;;;0.40;0.30;;;;;;;13.28;65.46;98342.59;5096567;28;20441;-76
2022/04/07 07:55:01;;;;;;;0.57;0.30;;;;;;;13.30;65.70;98342.22;5095802;28;20428;-77
2022/04/07 07:57:29;;;;;;;0.40;0.30;;;;;;;13.26;66.28;98327.81;5096621;28;20440;-77
2022/04/07 07:59:57;;;;;;;0.40;0.30;;;;;;;13.31;65.90;98320.09;5096508;28;20440;-76
2022/04/07 08:02:24;;;;;;;0.40;0.30;;;;;;;13.33;66.12;98323.22;5095813;28;20451;-77
2022/04/07 08:04:50;;;;;;;0.40;0.20;;;;;;;13.39;64.99;98310.06;5095906;28;20467;-76
2022/04/07 08:07:16;;;;;;;0.40;0.30;;;;;;;13.43;65.84;98308.16;5095997;28;20440;-77
2022/04/07 08:09:43;;;;;;;0.40;0.30;;;;;;;13.47;64.91;98310.91;5096237;28;20463;-78
2022/04/07 08:12:10;;;;;;;0.40;0.30;;;;;;;13.55;64.72;98304.38;5097033;28;20451;-77
2022/04/07 08:14:38;;;;;;;0.40;0.20;;;;;;;13.66;65.13;98307.94;5097247;28;20544;-77
2022/04/07 08:17:05;;;;;;;0.40;0.30;;;;;;;13.74;64.93;98300.63;5096227;28;20480;-78
2022/04/07 08:19:31;;;;;;;0.40;0.20;;;;;;;13.91;64.67;98297.25;5097905;28;20440;-78
2022/04/07 08:21:58;;;;;;;0.40;0.20;;;;;;;13.73;63.89;98283.50;5098238;28;20446;-77
2022/04/07 08:24:24;;;;;;;0.40;0.30;;;;;;;13.74;63.58;98290.50;5097102;28;20460;-77
2022/04/07 08:26:51;;;;;;;0.40;0.30;;;;;;;13.81;64.81;98274.25;5096423;28;20452;-77
2022/04/07 08:29:17;;;;;;;0.40;0.20;;;;;;;14.02;64.07;98280.97;5095872;28;20785;-77
2022/04/07 08:31:45;;;;;;;0.40;0.30;;;;;;;14.10;63.86;98296.16;5095730;28;20452;-77
2022/04/07 08:34:12;;;;;;;0.40;0.30;;;;;;;14.07;63.36;98273.19;5095560;28;20471;-77
2022/04/07 08:36:39;;;;;;;0.40;0.30;;;;;;;14.17;64.04;98260.06;5095496;28;20488;-76
2022/04/07 08:39:06;;;;;;;0.40;0.23;;;;;;;14.38;63.26;98260.13;5096048;28;20433;-77
2022/04/07 08:41:34;;;;;;;0.40;0.20;;;;;;;14.46;63.35;98250.03;5100310;28;20444;-78
2022/04/07 08:44:01;;;;;;;0.40;0.30;;;;;;;14.52;62.10;98268.38;5098086;28;20583;-76
2022/04/07 08:46:28;;;;;;;0.40;0.20;;;;;;;14.53;63.16;98261.00;5095968;28;20444;-76
2022/04/07 08:48:56;;;;;;;0.40;0.30;;;;;;;14.54;61.17;98276.16;5095786;28;20441;-77
2022/04/07 08:51:26;;;;;;;0.40;0.30;;;;;;;14.53;63.04;98269.16;5095447;28;20444;-77
2022/04/07 08:53:53;;;;;;;0.40;0.30;;;;;;;14.51;61.64;98250.47;5095551;28;20484;-78
2022/04/07 08:56:19;;;;;;;0.40;0.20;;;;;;;14.37;62.71;98262.06;5095151;28;20481;-76
2022/04/07 08:58:45;;;;;;;0.40;0.30;;;;;;;14.34;62.77;98256.59;5095246;28;20444;-76
2022/04/07 09:01:12;;;;;;;0.40;0.30;;;;;;;14.27;62.59;98245.69;5094997;28;20945;-78
2022/04/07 09:03:39;;;;;;;1.33;1.23;;;;;;;14.20;63.93;98243.72;5094547;28;20995;-76
2022/04/07 09:06:06;;;;;;;0.40;0.20;;;;;;;14.27;64.13;98251.91;5094145;28;20444;-77
2022/04/07 09:08:35;;;;;;;0.40;0.30;;;;;;;14.24;63.53;98238.28;5095255;28;20441;-76
2022/04/07 09:11:04;;;;;;;0.40;0.20;;;;;;;14.17;63.44;98232.81;5095009;28;20550;-76
2022/04/07 09:13:34;;;;;;;0.40;0.20;;;;;;;14.17;63.38;98220.00;5094705;28;20461;-77
2022/04/07 09:16:00;;;;;;;0.40;0.20;;;;;;;14.09;64.21;98210.22;5094535;28;20559;-76
2022/04/07 09:18:27;;;;;;;0.40;0.30;;;;;;;14.02;63.63;98202.78;5095789;28;20449;-78
2022/04/07 09:20:53;;;;;;;0.40;0.27;;;;;;;14.03;64.17;98196.22;5095573;28;20429;-78
2022/04/07 09:23:21;;;;;;;0.40;0.30;;;;;;;14.13;64.51;98187.31;5094421;28;20472;-75
2022/04/07 09:25:49;;;;;;;0.40;0.30;;;;;;;14.25;65.12;98179.94;5094419;28;20441;-75
2022/04/07 09:28:25;;;;;;;0.40;0.30;;;;;;;14.41;66.15;98171.44;5094467;28;20525;-75
2022/04/07 09:30:52;;;;;;;0.40;0.30;;;;;;;14.55;62.89;98182.38;5095133;28;20471;-78
2022/04/07 09:33:22;;;;;;;0.40;0.30;;;;;;;14.68;61.92;98174.63;5094444;28;20475;-76
2022/04/07 09:36:02;;;;;;;0.40;0.27;;;;;;;14.90;62.91;98165.28;5094164;28;20498;-76
2022/04/07 09:38:31;;;;;;;0.53;0.53;;;;;;;15.06;60.72;98156.72;5094424;28;20487;-77
2022/04/07 09:41:05;;;;;;;0.40;0.30;;;;;;;15.13;59.56;98134.88;5094548;28;20475;-78
2022/04/07 09:43:32;;;;;;;0.40;0.20;;;;;;;15.15;60.33;98138.00;5094443;28;21031;-76
2022/04/07 09:45:58;;;;;;;0.40;0.30;;;;;;;14.94;59.90;98141.53;5096482;28;20437;-76
2022/04/07 09:48:27;;;;;;;0.40;0.30;;;;;;;14.77;59.61;98153.97;5095339;28;20443;-78
2022/04/07 09:51:04;;;;;;;0.40;0.30;;;;;;;14.71;60.48;98136.47;5094259;28;20995;-76
2022/04/07 09:53:36;;;;;;;0.40;0.30;;;;;;;14.87;60.54;98131.41;5093963;28;20460;-76
2022/04/07 09:56:04;;;;;;;0.40;0.30;;;;;;;14.83;59.30;98122.47;5095360;28;20710;-77
2022/04/07 09:58:32;;;;;;;0.40;0.30;;;;;;;14.78;59.72;98120.09;5094707;28;20448;-77
2022/04/07 10:01:01;;;;;;;2.50;2.30;;;;;;;14.81;58.97;98102.22;5094662;28;20460;-77
2022/04/07 10:03:28;;;;;;;0.40;0.30;;;;;;;14.70;59.62;98085.88;5094873;28;20527;-77
2022/04/07 10:05:56;;;;;;;0.40;0.20;;;;;;;14.81;59.34;98086.63;5094077;28;20539;-76
2022/04/07 10:08:23;;;;;;;0.40;0.30;;;;;;;14.91;58.35;98067.94;5093942;28;20460;-77
2022/04/07 10:10:52;;;;;;;0.40;0.30;;;;;;;14.84;59.17;98079.63;5094017;28;20449;-76
2022/04/07 10:13:19;;;;;;;0.40;0.30;;;;;;;14.82;59.39;98074.56;5093693;28;20445;-76
2022/04/07 10:15:46;;;;;;;0.40;0.30;;;;;;;14.83;59.19;98065.22;5093736;28;20837;-77
2022/04/07 10:18:20;;;;;;;0.40;0.30;;;;;;;14.81;58.86;98053.94;5093390;28;20815;-76
2022/04/07 10:20:50;;;;;;;0.40;0.20;;;;;;;14.79;58.33;98048.09;5093927;28;20435;-79
2022/04/07 10:23:28;;;;;;;0.40;0.20;;;;;;;14.70;59.98;98028.66;5093761;28;20483;-76
2022/04/07 10:25:59;;;;;;;0.40;0.23;;;;;;;14.63;59.19;98017.75;5093972;28;20428;-76
2022/04/07 10:28:27;;;;;;;0.40;0.30;;;;;;;14.52;61.20;98025.13;5093719;28;20902;-76
2022/04/07 10:30:54;;;;;;;0.40;0.20;;;;;;;14.50;60.48;98019.31;5093732;28;20453;-77
2022/04/07 10:33:33;;;;;;;0.40;0.20;;;;;;;14.55;60.33;98003.34;5093663;28;20460;-77
2022/04/07 10:36:00;;;;;;;0.40;0.27;;;;;;;14.58;60.62;97986.22;5094088;28;20420;-77
2022/04/07 10:38:37;;;;;;;0.40;0.30;;;;;;;14.67;60.69;97991.28;5093625;28;20440;-76
2022/04/07 10:41:05;;;;;;;0.40;0.30;;;;;;;14.59;61.30;97970.66;5093834;28;20785;-77
2022/04/07 10:43:37;;;;;;;0.40;0.30;;;;;;;14.45;62.36;97970.66;5093347;28;20453;-76
2022/04/07 10:46:10;;;;;;;0.40;0.30;;;;;;;14.33;62.66;97961.72;5093834;28;20425;-77
2022/04/07 10:48:37;;;;;;;0.40;0.27;;;;;;;14.22;66.03;97941.13;5093751;28;20409;-77
2022/04/07 10:51:05;;;;;;;0.40;0.30;;;;;;;14.09;66.44;97946.19;5093123;28;20440;-77
2022/04/07 10:53:33;;;;;;;0.40;0.20;;;;;;;13.92;68.77;97934.13;5093747;28;20464;-77
2022/04/07 10:56:10;;;;;;;0.40;0.20;;;;;;;13.79;71.01;97931.00;5093656;28;20440;-76
2022/04/07 10:58:45;;;;;;;0.40;0.30;;;;;;;13.62;72.17;97921.66;5093384;28;20772;-77
2022/04/07 11:01:31;;;;;;;0.40;0.30;;;;;;;13.65;71.33;97917.38;5093237;28;20881;-76
2022/04/07 11:04:32;;;;;;;0.40;0.30;;;;;;;13.65;69.21;97903.78;5088809;28;20567;-77
2022/04/07 11:07:24;;;;;;;0.40;0.30;;;;;;;13.68;67.51;97889.41;5094183;28;20448;-77
2022/04/07 11:10:04;;;;;;;0.40;0.30;;;;;;;13.83;67.92;97890.97;5093667;28;20421;-77
2022/04/07 11:12:33;;;;;;;0.40;0.30;;;;;;;13.86;69.41;97878.53;5093299;28;20417;-76
2022/04/07 11:15:24;;;;;;;0.40;0.30;;;;;;;13.82;69.72;97859.50;5093640;28;20822;-77
2022/04/07 11:17:58;;;;;;;0.40;0.27;;;;;;;13.84;69.90;97862.59;5093298;28;20545;-77
2022/04/07 11:20:26;;;;;;;0.40;0.30;;;;;;;13.94;67.92;97849.34;5094167;28;20429;-77
2022/04/07 11:22:54;;;;;;;0.40;0.30;;;;;;;13.90;71.17;97838.50;5119163;22;20978;-72
2022/04/07 11:25:23;;;;;;;0.40;0.30;;;;;;;13.89;71.07;97826.81;5092253;28;20464;-73
2022/04/07 11:28:10;;;;;;;0.40;0.30;;;;;;;13.87;71.61;97823.72;5092747;28;20441;-73
2022/04/07 11:30:39;;;;;;;0.40;0.30;;;;;;;13.89;67.44;97826.81;5095732;28;20437;-72
2022/04/07 11:33:26;;;;;;;0.40;0.30;;;;;;;13.91;68.55;97828.38;5095970;28;20949;-72
2022/04/07 11:36:14;;;;;;;0.40;0.30;;;;;;;13.98;68.84;97817.47;5096579;28;20465;-73
2022/04/07 11:38:45;;;;;;;0.40;0.27;;;;;;;13.83;67.79;97800.41;5096513;28;20432;-73
2022/04/07 11:41:14;;;;;;;0.40;0.30;;;;;;;13.82;69.92;97787.97;5096309;28;20441;-73